»·PEaware :: N9735P C47-KOSH

N9735P :: C47-KOSH

FLIGHT INFORMATION

Flight Status: Arrived
Operator: Privately registered:
United States
More flights under this callsign
Pilot: Jerome P. (19377)
Aircraft: Unknown
(CS23)
More flights by this aircraft type
Origin: C47 Portage Mun
United States
Destination: KOSH Wittman Regl
United States
More flights between these airports :: More routes between these airports
Route: VPENV VPPLK VPGRN
File this flight plan on PilotEdge
Remarks:
Altitude:
(Current/Filed)
1,800ft
Speed:
(Current/Filed)
130kts
Departed: 14-Jul-21 12:44 PM
Arrived: 14-Jul-21 01:24 PM
Distance/Time
Traveled:
47nm/0:39
Distance/Time
To Go:
Arrived

Flight Plot

Page will automatically refresh every two minutes.

Flight plan parsing failed; only flown route is shown


Map Options




Map Legend


Flown Route
Filed Route
Departure Airport
Arrival Airport
Navaid (VOR, NDB)
Fix

Horizontal Profiles

Position Reports

Time Latitude Longitude Heading Altitude Ground
Speed
14-Jul-21 12:26 43.555954 -89.481533 189 824ft 0kts
14-Jul-21 12:27 43.555953 -89.481533 188 824ft 0kts
14-Jul-21 12:28 43.555954 -89.481533 189 824ft 0kts
14-Jul-21 12:29 43.555954 -89.481533 189 824ft 0kts
14-Jul-21 12:30 43.555954 -89.481533 189 824ft 0kts
14-Jul-21 12:31 43.555954 -89.481533 189 824ft 0kts
14-Jul-21 12:32 43.555954 -89.481533 189 824ft 0kts
14-Jul-21 12:33 43.555954 -89.481533 189 824ft 0kts
14-Jul-21 12:34 43.555954 -89.481533 189 824ft 0kts
14-Jul-21 12:35 43.555523 -89.482442 269 824ft 2kts
14-Jul-21 12:36 43.555523 -89.482452 268 824ft 0kts
14-Jul-21 12:37 43.555523 -89.482452 268 824ft 0kts
14-Jul-21 12:38 43.555523 -89.482452 268 824ft 0kts
14-Jul-21 12:39 43.555523 -89.482452 268 824ft 0kts
14-Jul-21 12:40 43.555523 -89.482452 268 824ft 0kts
14-Jul-21 12:41 43.555523 -89.482452 268 824ft 0kts
14-Jul-21 12:42 43.555523 -89.482452 268 824ft 0kts
14-Jul-21 12:43 43.560642 -89.483093 358 823ft 94kts
14-Jul-21 12:44 43.591031 -89.482256 1 2071ft 114kts
14-Jul-21 12:45 43.619430 -89.482574 6 1707ft 92kts
14-Jul-21 12:46 43.642997 -89.494268 345 1901ft 103kts
14-Jul-21 12:47 43.670840 -89.484885 16 1805ft 101kts
14-Jul-21 12:48 43.697064 -89.489721 332 1863ft 97kts
14-Jul-21 12:49 43.722927 -89.490053 359 1771ft 86kts
14-Jul-21 12:50 43.748434 -89.489954 0 1610ft 103kts
14-Jul-21 12:51 43.773613 -89.485977 3 1748ft 88kts
14-Jul-21 12:52 43.789072 -89.471858 99 1795ft 92kts
14-Jul-21 12:53 43.779315 -89.436744 121 1659ft 104kts
14-Jul-21 12:54 43.770356 -89.401156 99 1625ft 94kts
14-Jul-21 12:55 43.765253 -89.363563 112 2131ft 101kts
14-Jul-21 12:56 43.753774 -89.333287 106 1876ft 93kts
14-Jul-21 12:57 43.747280 -89.299168 108 1837ft 95kts
14-Jul-21 12:58 43.745318 -89.262904 91 1862ft 97kts
14-Jul-21 12:59 43.741550 -89.226576 74 1837ft 92kts
14-Jul-21 13:00 43.750257 -89.192332 70 1770ft 94kts
14-Jul-21 13:01 43.756265 -89.156997 72 1728ft 94kts
14-Jul-21 13:02 43.763801 -89.122283 78 1707ft 92kts
14-Jul-21 13:03 43.768755 -89.088858 63 1774ft 87kts
14-Jul-21 13:04 43.775989 -89.056025 82 1775ft 90kts
14-Jul-21 13:05 43.784465 -89.023513 74 1809ft 90kts
14-Jul-21 13:06 43.795044 -88.991986 63 1819ft 91kts
14-Jul-21 13:07 43.805098 -88.960192 68 1852ft 90kts
14-Jul-21 13:08 43.813762 -88.927666 61 1879ft 89kts
14-Jul-21 13:09 43.826828 -88.897308 74 1836ft 94kts
14-Jul-21 13:10 43.834672 -88.862414 58 1798ft 92kts
14-Jul-21 13:11 43.849108 -88.832736 52 1769ft 94kts
14-Jul-21 13:12 43.865225 -88.804982 48 1777ft 91kts
14-Jul-21 13:13 43.882002 -88.778156 47 1771ft 92kts
14-Jul-21 13:14 43.899475 -88.752611 47 1788ft 91kts
14-Jul-21 13:15 43.917239 -88.727400 37 1791ft 91kts
14-Jul-21 13:16 43.937337 -88.705554 42 1800ft 90kts
14-Jul-21 13:17 43.955678 -88.681200 54 1783ft 93kts
14-Jul-21 13:18 43.970952 -88.652101 57 1758ft 94kts
14-Jul-21 13:19 43.984771 -88.621553 57 1689ft 90kts
14-Jul-21 13:20 43.996899 -88.590930 66 1676ft 91kts
14-Jul-21 13:21 43.999898 -88.555839 90 1612ft 86kts
14-Jul-21 13:22 43.991462 -88.548073 267 858ft 65kts
14-Jul-21 13:23 43.992056 -88.558476 271 812ft 14kts
14-Jul-21 13:24 43.993131 -88.561836 332 812ft 11kts
14-Jul-21 13:25 43.993158 -88.561940 148 812ft 0kts
14-Jul-21 13:26 43.993158 -88.561940 148 812ft 0kts
14-Jul-21 13:30 43.993159 -88.561940 148 812ft 0kts
14-Jul-21 13:34 43.991039 -88.572617 147 812ft 0kts
14-Jul-21 13:35 43.991038 -88.572616 145 812ft 0kts
14-Jul-21 13:36 43.990316 -88.571795 191 812ft 6kts
14-Jul-21 13:37 43.989989 -88.571748 94 812ft 0kts

Navigation Log

Ident Type
Flight plan parsing failed, navigation log unavailable